sensor_id;sensor_type;location;lat;lon;timestamp;pressure;altitude;pressure_sealevel;temperature
7882;BMP180;3986;41.884;23.466;2022-11-13T00:02:19;93241.00;;;6.90
7882;BMP180;3986;41.884;23.466;2022-11-13T00:04:45;93242.00;;;7.30
7882;BMP180;3986;41.884;23.466;2022-11-13T00:07:12;93251.00;;;7.20
7882;BMP180;3986;41.884;23.466;2022-11-13T00:09:39;93247.00;;;7.10
7882;BMP180;3986;41.884;23.466;2022-11-13T00:12:06;93238.00;;;6.90
7882;BMP180;3986;41.884;23.466;2022-11-13T00:14:34;93243.00;;;7.10
7882;BMP180;3986;41.884;23.466;2022-11-13T00:17:01;93244.00;;;7.30
7882;BMP180;3986;41.884;23.466;2022-11-13T00:19:28;93248.00;;;7.50
7882;BMP180;3986;41.884;23.466;2022-11-13T00:21:54;93248.00;;;7.50
7882;BMP180;3986;41.884;23.466;2022-11-13T00:24:24;93245.00;;;7.60
7882;BMP180;3986;41.884;23.466;2022-11-13T00:26:51;93252.00;;;7.50
7882;BMP180;3986;41.884;23.466;2022-11-13T00:29:17;93248.00;;;7.40
7882;BMP180;3986;41.884;23.466;2022-11-13T00:31:46;93241.00;;;7.50
7882;BMP180;3986;41.884;23.466;2022-11-13T00:34:12;93111.00;;;7.60
7882;BMP180;3986;41.884;23.466;2022-11-13T00:36:39;93254.00;;;7.60
7882;BMP180;3986;41.884;23.466;2022-11-13T00:39:06;93215.00;;;7.50
7882;BMP180;3986;41.884;23.466;2022-11-13T00:41:33;93245.00;;;7.50
7882;BMP180;3986;41.884;23.466;2022-11-13T00:44:00;93253.00;;;7.60
7882;BMP180;3986;41.884;23.466;2022-11-13T00:46:28;93269.00;;;7.70
7882;BMP180;3986;41.884;23.466;2022-11-13T00:48:56;93244.00;;;7.60
7882;BMP180;3986;41.884;23.466;2022-11-13T00:51:23;93248.00;;;7.50
7882;BMP180;3986;41.884;23.466;2022-11-13T00:53:50;93245.00;;;7.50
7882;BMP180;3986;41.884;23.466;2022-11-13T00:56:17;93251.00;;;7.20
7882;BMP180;3986;41.884;23.466;2022-11-13T00:58:44;93241.00;;;7.00
7882;BMP180;3986;41.884;23.466;2022-11-13T01:01:13;93247.00;;;7.40
7882;BMP180;3986;41.884;23.466;2022-11-13T01:03:40;93237.00;;;7.60
7882;BMP180;3986;41.884;23.466;2022-11-13T01:06:12;93232.00;;;7.60
7882;BMP180;3986;41.884;23.466;2022-11-13T01:08:40;93237.00;;;7.60
7882;BMP180;3986;41.884;23.466;2022-11-13T01:11:08;93238.00;;;7.50
7882;BMP180;3986;41.884;23.466;2022-11-13T01:13:35;93241.00;;;7.40
7882;BMP180;3986;41.884;23.466;2022-11-13T01:16:04;93233.00;;;7.50
7882;BMP180;3986;41.884;23.466;2022-11-13T01:18:31;93237.00;;;7.60
7882;BMP180;3986;41.884;23.466;2022-11-13T01:21:03;93240.00;;;7.60
7882;BMP180;3986;41.884;23.466;2022-11-13T01:23:31;93233.00;;;7.10
7882;BMP180;3986;41.884;23.466;2022-11-13T01:26:07;93238.00;;;7.10
7882;BMP180;3986;41.884;23.466;2022-11-13T01:28:34;93198.00;;;7.20
7882;BMP180;3986;41.884;23.466;2022-11-13T01:31:04;93202.00;;;6.80
7882;BMP180;3986;41.884;23.466;2022-11-13T01:33:30;93231.00;;;6.70
7882;BMP180;3986;41.884;23.466;2022-11-13T01:36:01;93179.00;;;6.90
7882;BMP180;3986;41.884;23.466;2022-11-13T01:38:28;93224.00;;;6.70
7882;BMP180;3986;41.884;23.466;2022-11-13T01:40:57;93254.00;;;6.80
7882;BMP180;3986;41.884;23.466;2022-11-13T01:43:26;93231.00;;;7.00
7882;BMP180;3986;41.884;23.466;2022-11-13T01:46:18;93191.00;;;7.20
7882;BMP180;3986;41.884;23.466;2022-11-13T01:48:48;93226.00;;;7.30
7882;BMP180;3986;41.884;23.466;2022-11-13T01:51:20;93224.00;;;7.30
7882;BMP180;3986;41.884;23.466;2022-11-13T01:53:49;93245.00;;;7.40
7882;BMP180;3986;41.884;23.466;2022-11-13T01:56:17;93227.00;;;7.20
7882;BMP180;3986;41.884;23.466;2022-11-13T01:58:48;93226.00;;;7.30
7882;BMP180;3986;41.884;23.466;2022-11-13T02:01:16;93217.00;;;7.40
7882;BMP180;3986;41.884;23.466;2022-11-13T02:03:43;93228.00;;;7.50
7882;BMP180;3986;41.884;23.466;2022-11-13T02:06:10;93228.00;;;7.20
7882;BMP180;3986;41.884;23.466;2022-11-13T02:08:37;93224.00;;;7.00
7882;BMP180;3986;41.884;23.466;2022-11-13T02:11:04;93230.00;;;6.80
7882;BMP180;3986;41.884;23.466;2022-11-13T02:13:33;93226.00;;;6.90
7882;BMP180;3986;41.884;23.466;2022-11-13T02:16:02;93222.00;;;6.80
7882;BMP180;3986;41.884;23.466;2022-11-13T02:18:30;93225.00;;;6.70
7882;BMP180;3986;41.884;23.466;2022-11-13T02:21:05;93219.00;;;6.90
7882;BMP180;3986;41.884;23.466;2022-11-13T02:23:41;93221.00;;;6.80
7882;BMP180;3986;41.884;23.466;2022-11-13T02:26:11;93257.00;;;7.10
7882;BMP180;3986;41.884;23.466;2022-11-13T02:28:38;93229.00;;;7.20
7882;BMP180;3986;41.884;23.466;2022-11-13T02:31:06;93214.00;;;7.00
7882;BMP180;3986;41.884;23.466;2022-11-13T02:33:33;93091.00;;;6.90
7882;BMP180;3986;41.884;23.466;2022-11-13T02:36:00;93174.00;;;6.70
7882;BMP180;3986;41.884;23.466;2022-11-13T02:38:28;93220.00;;;6.40
7882;BMP180;3986;41.884;23.466;2022-11-13T02:40:55;93220.00;;;6.50
7882;BMP180;3986;41.884;23.466;2022-11-13T02:43:23;93218.00;;;6.70
7882;BMP180;3986;41.884;23.466;2022-11-13T02:45:50;93226.00;;;6.50
7882;BMP180;3986;41.884;23.466;2022-11-13T02:48:16;93190.00;;;6.70
7882;BMP180;3986;41.884;23.466;2022-11-13T02:50:44;93217.00;;;6.70
7882;BMP180;3986;41.884;23.466;2022-11-13T02:53:11;93220.00;;;6.40
7882;BMP180;3986;41.884;23.466;2022-11-13T02:55:37;93204.00;;;6.10
7882;BMP180;3986;41.884;23.466;2022-11-13T02:58:04;93211.00;;;6.30
7882;BMP180;3986;41.884;23.466;2022-11-13T03:00:32;93220.00;;;6.30
7882;BMP180;3986;41.884;23.466;2022-11-13T03:02:59;93215.00;;;6.30
7882;BMP180;3986;41.884;23.466;2022-11-13T03:05:26;93213.00;;;6.20
7882;BMP180;3986;41.884;23.466;2022-11-13T03:07:53;93220.00;;;6.00
7882;BMP180;3986;41.884;23.466;2022-11-13T03:10:20;93226.00;;;6.10
7882;BMP180;3986;41.884;23.466;2022-11-13T03:12:46;93222.00;;;6.20
7882;BMP180;3986;41.884;23.466;2022-11-13T03:15:13;93222.00;;;6.40
7882;BMP180;3986;41.884;23.466;2022-11-13T03:17:42;93228.00;;;6.40
7882;BMP180;3986;41.884;23.466;2022-11-13T03:20:09;93220.00;;;6.20
7882;BMP180;3986;41.884;23.466;2022-11-13T03:22:35;93229.00;;;6.20
7882;BMP180;3986;41.884;23.466;2022-11-13T03:25:03;93230.00;;;6.10
7882;BMP180;3986;41.884;23.466;2022-11-13T03:27:31;93228.00;;;6.00
7882;BMP180;3986;41.884;23.466;2022-11-13T03:29:58;93233.00;;;6.20
7882;BMP180;3986;41.884;23.466;2022-11-13T03:32:25;93227.00;;;6.30
7882;BMP180;3986;41.884;23.466;2022-11-13T03:34:53;93230.00;;;6.40
7882;BMP180;3986;41.884;23.466;2022-11-13T03:37:20;93235.00;;;6.10
7882;BMP180;3986;41.884;23.466;2022-11-13T03:39:46;93245.00;;;6.20
7882;BMP180;3986;41.884;23.466;2022-11-13T03:42:13;93243.00;;;6.00
7882;BMP180;3986;41.884;23.466;2022-11-13T03:44:40;93235.00;;;6.10
7882;BMP180;3986;41.884;23.466;2022-11-13T03:47:07;93240.00;;;6.30
7882;BMP180;3986;41.884;23.466;2022-11-13T03:49:33;93237.00;;;6.30
7882;BMP180;3986;41.884;23.466;2022-11-13T03:52:03;93235.00;;;6.40
7882;BMP180;3986;41.884;23.466;2022-11-13T03:54:29;93240.00;;;6.60
7882;BMP180;3986;41.884;23.466;2022-11-13T03:56:56;93231.00;;;6.10
7882;BMP180;3986;41.884;23.466;2022-11-13T03:59:23;93233.00;;;6.00
7882;BMP180;3986;41.884;23.466;2022-11-13T04:01:50;93236.00;;;6.00
7882;BMP180;3986;41.884;23.466;2022-11-13T04:04:17;93241.00;;;6.00
7882;BMP180;3986;41.884;23.466;2022-11-13T04:06:43;93243.00;;;5.80
7882;BMP180;3986;41.884;23.466;2022-11-13T04:09:12;93271.00;;;5.80
7882;BMP180;3986;41.884;23.466;2022-11-13T04:11:38;93245.00;;;6.00
7882;BMP180;3986;41.884;23.466;2022-11-13T04:14:05;93254.00;;;5.70
7882;BMP180;3986;41.884;23.466;2022-11-13T04:16:32;93245.00;;;5.90
7882;BMP180;3986;41.884;23.466;2022-11-13T04:18:59;93248.00;;;6.20
7882;BMP180;3986;41.884;23.466;2022-11-13T04:21:26;93246.00;;;6.50
7882;BMP180;3986;41.884;23.466;2022-11-13T04:23:53;93252.00;;;6.30
7882;BMP180;3986;41.884;23.466;2022-11-13T04:26:21;93233.00;;;6.00
7882;BMP180;3986;41.884;23.466;2022-11-13T04:28:48;93238.00;;;6.30
7882;BMP180;3986;41.884;23.466;2022-11-13T04:31:15;93245.00;;;6.40
7882;BMP180;3986;41.884;23.466;2022-11-13T04:33:42;93237.00;;;6.30
7882;BMP180;3986;41.884;23.466;2022-11-13T04:36:09;93236.00;;;6.40
7882;BMP180;3986;41.884;23.466;2022-11-13T04:38:35;93238.00;;;6.50
7882;BMP180;3986;41.884;23.466;2022-11-13T04:41:02;93234.00;;;6.40
7882;BMP180;3986;41.884;23.466;2022-11-13T04:43:48;93241.00;;;6.30
7882;BMP180;3986;41.884;23.466;2022-11-13T04:46:15;93231.00;;;6.50
7882;BMP180;3986;41.884;23.466;2022-11-13T04:48:42;93241.00;;;6.10
7882;BMP180;3986;41.884;23.466;2022-11-13T04:51:08;93240.00;;;6.20
7882;BMP180;3986;41.884;23.466;2022-11-13T04:53:35;93245.00;;;6.10
7882;BMP180;3986;41.884;23.466;2022-11-13T04:56:02;93238.00;;;6.10
7882;BMP180;3986;41.884;23.466;2022-11-13T04:58:29;93234.00;;;6.50
7882;BMP180;3986;41.884;23.466;2022-11-13T05:00:57;93239.00;;;6.50
7882;BMP180;3986;41.884;23.466;2022-11-13T05:03:24;93248.00;;;6.50
7882;BMP180;3986;41.884;23.466;2022-11-13T05:05:51;93248.00;;;6.40
7882;BMP180;3986;41.884;23.466;2022-11-13T05:08:18;93245.00;;;6.20
7882;BMP180;3986;41.884;23.466;2022-11-13T05:10:44;93250.00;;;6.10
7882;BMP180;3986;41.884;23.466;2022-11-13T05:13:11;93250.00;;;6.10
7882;BMP180;3986;41.884;23.466;2022-11-13T05:15:38;93114.00;;;6.20
7882;BMP180;3986;41.884;23.466;2022-11-13T05:18:06;93255.00;;;6.40
7882;BMP180;3986;41.884;23.466;2022-11-13T05:20:33;93260.00;;;6.40
7882;BMP180;3986;41.884;23.466;2022-11-13T05:23:00;93257.00;;;6.30
7882;BMP180;3986;41.884;23.466;2022-11-13T05:25:26;93261.00;;;6.30
7882;BMP180;3986;41.884;23.466;2022-11-13T05:27:56;93261.00;;;6.20
7882;BMP180;3986;41.884;23.466;2022-11-13T05:30:23;93281.00;;;6.00
7882;BMP180;3986;41.884;23.466;2022-11-13T05:32:50;93257.00;;;6.00
7882;BMP180;3986;41.884;23.466;2022-11-13T05:35:19;93260.00;;;5.90
7882;BMP180;3986;41.884;23.466;2022-11-13T05:37:45;93252.00;;;5.50
7882;BMP180;3986;41.884;23.466;2022-11-13T05:40:12;93260.00;;;5.70
7882;BMP180;3986;41.884;23.466;2022-11-13T05:42:39;93267.00;;;5.80
7882;BMP180;3986;41.884;23.466;2022-11-13T05:45:07;93274.00;;;5.90
7882;BMP180;3986;41.884;23.466;2022-11-13T05:47:34;93238.00;;;6.00
7882;BMP180;3986;41.884;23.466;2022-11-13T05:50:01;93271.00;;;6.10
7882;BMP180;3986;41.884;23.466;2022-11-13T05:52:29;93266.00;;;6.30
7882;BMP180;3986;41.884;23.466;2022-11-13T05:54:56;93277.00;;;6.30
7882;BMP180;3986;41.884;23.466;2022-11-13T05:57:22;93271.00;;;6.50
7882;BMP180;3986;41.884;23.466;2022-11-13T05:59:49;93275.00;;;6.40
7882;BMP180;3986;41.884;23.466;2022-11-13T06:02:16;93278.00;;;6.60
7882;BMP180;3986;41.884;23.466;2022-11-13T06:04:43;93279.00;;;6.60
7882;BMP180;3986;41.884;23.466;2022-11-13T06:07:09;93279.00;;;6.40
7882;BMP180;3986;41.884;23.466;2022-11-13T06:09:38;93272.00;;;6.10
7882;BMP180;3986;41.884;23.466;2022-11-13T06:12:05;93278.00;;;6.50
7882;BMP180;3986;41.884;23.466;2022-11-13T06:14:32;93282.00;;;6.80
7882;BMP180;3986;41.884;23.466;2022-11-13T06:16:59;93288.00;;;6.60
7882;BMP180;3986;41.884;23.466;2022-11-13T06:19:26;93278.00;;;6.60
7882;BMP180;3986;41.884;23.466;2022-11-13T06:21:53;93291.00;;;6.20
7882;BMP180;3986;41.884;23.466;2022-11-13T06:24:20;93285.00;;;6.20
7882;BMP180;3986;41.884;23.466;2022-11-13T06:26:48;93281.00;;;6.40
7882;BMP180;3986;41.884;23.466;2022-11-13T06:29:15;93272.00;;;6.60
7882;BMP180;3986;41.884;23.466;2022-11-13T06:31:41;93279.00;;;6.70
7882;BMP180;3986;41.884;23.466;2022-11-13T06:34:08;93285.00;;;7.30
7882;BMP180;3986;41.884;23.466;2022-11-13T06:36:36;93287.00;;;7.10
7882;BMP180;3986;41.884;23.466;2022-11-13T06:39:04;93284.00;;;7.00
7882;BMP180;3986;41.884;23.466;2022-11-13T06:41:32;93289.00;;;7.30
7882;BMP180;3986;41.884;23.466;2022-11-13T06:44:00;93293.00;;;7.50
7882;BMP180;3986;41.884;23.466;2022-11-13T06:46:28;93292.00;;;7.30
7882;BMP180;3986;41.884;23.466;2022-11-13T06:48:56;93294.00;;;7.30
7882;BMP180;3986;41.884;23.466;2022-11-13T06:51:25;93295.00;;;7.60
7882;BMP180;3986;41.884;23.466;2022-11-13T06:53:52;93294.00;;;7.90
7882;BMP180;3986;41.884;23.466;2022-11-13T06:56:20;93291.00;;;8.00
7882;BMP180;3986;41.884;23.466;2022-11-13T06:58:47;93289.00;;;8.00
7882;BMP180;3986;41.884;23.466;2022-11-13T07:01:16;93291.00;;;8.10
7882;BMP180;3986;41.884;23.466;2022-11-13T07:03:43;93302.00;;;8.10
7882;BMP180;3986;41.884;23.466;2022-11-13T07:06:12;93294.00;;;9.10
7882;BMP180;3986;41.884;23.466;2022-11-13T07:08:40;93297.00;;;9.80
7882;BMP180;3986;41.884;23.466;2022-11-13T07:11:10;93304.00;;;9.70
7882;BMP180;3986;41.884;23.466;2022-11-13T07:13:37;93296.00;;;9.90
7882;BMP180;3986;41.884;23.466;2022-11-13T07:16:06;93298.00;;;10.20
7882;BMP180;3986;41.884;23.466;2022-11-13T07:18:35;93290.00;;;10.50
7882;BMP180;3986;41.884;23.466;2022-11-13T07:21:06;93294.00;;;10.70
7882;BMP180;3986;41.884;23.466;2022-11-13T07:29:26;93292.00;;;11.00
7882;BMP180;3986;41.884;23.466;2022-11-13T07:31:53;93287.00;;;11.30
7882;BMP180;3986;41.884;23.466;2022-11-13T07:34:19;93291.00;;;11.50
7882;BMP180;3986;41.884;23.466;2022-11-13T07:36:46;93286.00;;;11.30
7882;BMP180;3986;41.884;23.466;2022-11-13T07:39:13;93286.00;;;11.50
7882;BMP180;3986;41.884;23.466;2022-11-13T07:41:40;93281.00;;;11.60
7882;BMP180;3986;41.884;23.466;2022-11-13T07:44:07;93283.00;;;11.90
7882;BMP180;3986;41.884;23.466;2022-11-13T07:46:35;93285.00;;;11.80
7882;BMP180;3986;41.884;23.466;2022-11-13T07:49:02;93288.00;;;12.10
7882;BMP180;3986;41.884;23.466;2022-11-13T07:51:29;93288.00;;;12.60
7882;BMP180;3986;41.884;23.466;2022-11-13T07:53:55;93291.00;;;12.70
7882;BMP180;3986;41.884;23.466;2022-11-13T07:56:22;93291.00;;;12.80
7882;BMP180;3986;41.884;23.466;2022-11-13T07:58:49;93294.00;;;13.00
7882;BMP180;3986;41.884;23.466;2022-11-13T08:01:16;93287.00;;;13.40
7882;BMP180;3986;41.884;23.466;2022-11-13T08:03:44;93283.00;;;13.50
7882;BMP180;3986;41.884;23.466;2022-11-13T08:06:11;93284.00;;;14.10
7882;BMP180;3986;41.884;23.466;2022-11-13T08:08:38;93275.00;;;14.50
7882;BMP180;3986;41.884;23.466;2022-11-13T08:11:07;93277.00;;;14.90
7882;BMP180;3986;41.884;23.466;2022-11-13T08:13:35;93287.00;;;15.60
7882;BMP180;3986;41.884;23.466;2022-11-13T08:16:02;93281.00;;;15.90
7882;BMP180;3986;41.884;23.466;2022-11-13T08:18:30;93278.00;;;16.40
7882;BMP180;3986;41.884;23.466;2022-11-13T08:21:01;93276.00;;;17.10
7882;BMP180;3986;41.884;23.466;2022-11-13T08:23:28;93277.00;;;17.50
7882;BMP180;3986;41.884;23.466;2022-11-13T08:25:54;93280.00;;;17.50
7882;BMP180;3986;41.884;23.466;2022-11-13T08:28:21;93280.00;;;19.20
7882;BMP180;3986;41.884;23.466;2022-11-13T08:30:48;93281.00;;;20.50
7882;BMP180;3986;41.884;23.466;2022-11-13T08:33:15;93280.00;;;21.00
7882;BMP180;3986;41.884;23.466;2022-11-13T08:35:51;93296.00;;;21.40
7882;BMP180;3986;41.884;23.466;2022-11-13T08:38:19;93282.00;;;21.90
7882;BMP180;3986;41.884;23.466;2022-11-13T08:40:46;93284.00;;;22.70
7882;BMP180;3986;41.884;23.466;2022-11-13T08:43:13;93284.00;;;22.80
7882;BMP180;3986;41.884;23.466;2022-11-13T08:45:40;93289.00;;;23.20
7882;BMP180;3986;41.884;23.466;2022-11-13T08:48:07;93265.00;;;23.40
7882;BMP180;3986;41.884;23.466;2022-11-13T08:50:34;93287.00;;;23.30
7882;BMP180;3986;41.884;23.466;2022-11-13T08:53:01;93295.00;;;25.20
7882;BMP180;3986;41.884;23.466;2022-11-13T08:55:30;93296.00;;;26.20
7882;BMP180;3986;41.884;23.466;2022-11-13T08:57:58;93296.00;;;27.10
7882;BMP180;3986;41.884;23.466;2022-11-13T09:00:26;93294.00;;;27.40
7882;BMP180;3986;41.884;23.466;2022-11-13T09:02:53;93309.00;;;28.30
7882;BMP180;3986;41.884;23.466;2022-11-13T09:05:20;93293.00;;;28.20
7882;BMP180;3986;41.884;23.466;2022-11-13T09:07:47;93285.00;;;29.20
7882;BMP180;3986;41.884;23.466;2022-11-13T09:10:15;93287.00;;;29.10
7882;BMP180;3986;41.884;23.466;2022-11-13T09:12:43;93294.00;;;29.30
7882;BMP180;3986;41.884;23.466;2022-11-13T09:15:11;93289.00;;;30.00
7882;BMP180;3986;41.884;23.466;2022-11-13T09:17:38;93294.00;;;30.80
7882;BMP180;3986;41.884;23.466;2022-11-13T09:20:05;93202.00;;;30.40
7882;BMP180;3986;41.884;23.466;2022-11-13T09:22:33;93301.00;;;30.40
7882;BMP180;3986;41.884;23.466;2022-11-13T09:25:00;93295.00;;;30.60
7882;BMP180;3986;41.884;23.466;2022-11-13T09:27:27;93286.00;;;26.80
7882;BMP180;3986;41.884;23.466;2022-11-13T09:29:55;93282.00;;;24.90
7882;BMP180;3986;41.884;23.466;2022-11-13T09:32:22;93278.00;;;23.60
7882;BMP180;3986;41.884;23.466;2022-11-13T09:34:49;93275.00;;;23.00
7882;BMP180;3986;41.884;23.466;2022-11-13T09:37:16;93277.00;;;24.60
7882;BMP180;3986;41.884;23.466;2022-11-13T09:39:43;93277.00;;;25.60
7882;BMP180;3986;41.884;23.466;2022-11-13T09:42:14;93264.00;;;23.20
7882;BMP180;3986;41.884;23.466;2022-11-13T09:44:45;93265.00;;;28.20
7882;BMP180;3986;41.884;23.466;2022-11-13T09:47:16;93281.00;;;28.40
7882;BMP180;3986;41.884;23.466;2022-11-13T09:49:46;93269.00;;;27.90
7882;BMP180;3986;41.884;23.466;2022-11-13T09:52:17;93269.00;;;29.80
7882;BMP180;3986;41.884;23.466;2022-11-13T09:54:45;93275.00;;;32.40
7882;BMP180;3986;41.884;23.466;2022-11-13T09:57:19;93185.00;;;33.80
7882;BMP180;3986;41.884;23.466;2022-11-13T09:59:52;93294.00;;;33.50
7882;BMP180;3986;41.884;23.466;2022-11-13T10:02:24;93268.00;;;33.80
7882;BMP180;3986;41.884;23.466;2022-11-13T10:04:59;93277.00;;;33.10
7882;BMP180;3986;41.884;23.466;2022-11-13T10:07:35;93267.00;;;33.50
7882;BMP180;3986;41.884;23.466;2022-11-13T10:10:36;93267.00;;;33.60
7882;BMP180;3986;41.884;23.466;2022-11-13T10:13:09;93260.00;;;32.80
7882;BMP180;3986;41.884;23.466;2022-11-13T10:15:37;93256.00;;;32.30
7882;BMP180;3986;41.884;23.466;2022-11-13T10:18:10;93259.00;;;33.70
7882;BMP180;3986;41.884;23.466;2022-11-13T10:20:43;93263.00;;;33.30
7882;BMP180;3986;41.884;23.466;2022-11-13T10:23:15;93266.00;;;32.60
7882;BMP180;3986;41.884;23.466;2022-11-13T10:25:44;93227.00;;;33.70
7882;BMP180;3986;41.884;23.466;2022-11-13T10:28:13;93254.00;;;33.20
7882;BMP180;3986;41.884;23.466;2022-11-13T10:34:05;93245.00;;;33.40
7882;BMP180;3986;41.884;23.466;2022-11-13T10:36:38;93243.00;;;32.40
7882;BMP180;3986;41.884;23.466;2022-11-13T10:39:08;93243.00;;;32.10
7882;BMP180;3986;41.884;23.466;2022-11-13T10:41:45;93230.00;;;31.90
7882;BMP180;3986;41.884;23.466;2022-11-13T10:44:28;93240.00;;;32.30
7882;BMP180;3986;41.884;23.466;2022-11-13T10:47:05;93226.00;;;31.40
7882;BMP180;3986;41.884;23.466;2022-11-13T10:49:33;93225.00;;;33.20
7882;BMP180;3986;41.884;23.466;2022-11-13T10:52:00;93134.00;;;32.90
7882;BMP180;3986;41.884;23.466;2022-11-13T10:54:29;93222.00;;;33.00
7882;BMP180;3986;41.884;23.466;2022-11-13T10:56:58;93196.00;;;33.30
7882;BMP180;3986;41.884;23.466;2022-11-13T10:59:34;93222.00;;;33.10
7882;BMP180;3986;41.884;23.466;2022-11-13T11:02:14;93203.00;;;34.10
7882;BMP180;3986;41.884;23.466;2022-11-13T11:04:43;93206.00;;;34.30
7882;BMP180;3986;41.884;23.466;2022-11-13T11:07:14;93210.00;;;35.00
7882;BMP180;3986;41.884;23.466;2022-11-13T11:09:41;93225.00;;;34.50
7882;BMP180;3986;41.884;23.466;2022-11-13T11:12:11;93219.00;;;32.60
7882;BMP180;3986;41.884;23.466;2022-11-13T11:15:04;93066.00;;;31.60
7882;BMP180;3986;41.884;23.466;2022-11-13T11:17:37;93200.00;;;32.10
7882;BMP180;3986;41.884;23.466;2022-11-13T11:20:18;93170.00;;;31.50
7882;BMP180;3986;41.884;23.466;2022-11-13T11:22:49;93189.00;;;31.30
7882;BMP180;3986;41.884;23.466;2022-11-13T11:25:25;93190.00;;;32.00
7882;BMP180;3986;41.884;23.466;2022-11-13T11:27:55;93190.00;;;32.10
7882;BMP180;3986;41.884;23.466;2022-11-13T11:30:25;93183.00;;;32.70
7882;BMP180;3986;41.884;23.466;2022-11-13T11:33:01;93190.00;;;30.90
7882;BMP180;3986;41.884;23.466;2022-11-13T11:35:44;93180.00;;;31.30
7882;BMP180;3986;41.884;23.466;2022-11-13T11:38:17;93205.00;;;30.90
7882;BMP180;3986;41.884;23.466;2022-11-13T11:40:50;93181.00;;;30.20
7882;BMP180;3986;41.884;23.466;2022-11-13T11:43:22;93172.00;;;30.70
7882;BMP180;3986;41.884;23.466;2022-11-13T11:45:50;93173.00;;;28.10
7882;BMP180;3986;41.884;23.466;2022-11-13T11:48:21;93171.00;;;27.80
7882;BMP180;3986;41.884;23.466;2022-11-13T11:50:56;93164.00;;;27.10
7882;BMP180;3986;41.884;23.466;2022-11-13T11:53:33;93156.00;;;26.90
7882;BMP180;3986;41.884;23.466;2022-11-13T11:56:14;93163.00;;;27.30
7882;BMP180;3986;41.884;23.466;2022-11-13T11:59:12;93153.00;;;26.00
7882;BMP180;3986;41.884;23.466;2022-11-13T12:02:28;93154.00;;;27.00
7882;BMP180;3986;41.884;23.466;2022-11-13T12:05:09;93172.00;;;27.40
7882;BMP180;3986;41.884;23.466;2022-11-13T12:07:57;93147.00;;;26.20
7882;BMP180;3986;41.884;23.466;2022-11-13T12:10:31;93152.00;;;26.50
7882;BMP180;3986;41.884;23.466;2022-11-13T12:13:20;93147.00;;;24.70
7882;BMP180;3986;41.884;23.466;2022-11-13T12:15:53;93137.00;;;25.20
7882;BMP180;3986;41.884;23.466;2022-11-13T12:18:28;93137.00;;;25.70
7882;BMP180;3986;41.884;23.466;2022-11-13T12:21:12;93138.00;;;22.70
7882;BMP180;3986;41.884;23.466;2022-11-13T12:23:55;93139.00;;;22.20
7882;BMP180;3986;41.884;23.466;2022-11-13T12:26:26;93127.00;;;21.20
7882;BMP180;3986;41.884;23.466;2022-11-13T12:29:01;93127.00;;;23.80
7882;BMP180;3986;41.884;23.466;2022-11-13T12:31:41;93126.00;;;24.70
7882;BMP180;3986;41.884;23.466;2022-11-13T12:34:15;93098.00;;;22.90
7882;BMP180;3986;41.884;23.466;2022-11-13T12:36:46;93116.00;;;23.00
7882;BMP180;3986;41.884;23.466;2022-11-13T12:39:31;93121.00;;;25.00
7882;BMP180;3986;41.884;23.466;2022-11-13T12:42:02;93113.00;;;21.80
7882;BMP180;3986;41.884;23.466;2022-11-13T12:44:38;93110.00;;;20.50
7882;BMP180;3986;41.884;23.466;2022-11-13T12:47:07;93107.00;;;24.50
7882;BMP180;3986;41.884;23.466;2022-11-13T12:49:35;93106.00;;;22.00
7882;BMP180;3986;41.884;23.466;2022-11-13T12:52:04;93126.00;;;23.80
7882;BMP180;3986;41.884;23.466;2022-11-13T12:54:34;93108.00;;;24.10
7882;BMP180;3986;41.884;23.466;2022-11-13T12:57:20;93111.00;;;23.60
7882;BMP180;3986;41.884;23.466;2022-11-13T12:59:49;93137.00;;;23.70
7882;BMP180;3986;41.884;23.466;2022-11-13T13:02:30;93107.00;;;23.30
7882;BMP180;3986;41.884;23.466;2022-11-13T13:05:13;93108.00;;;23.10
7882;BMP180;3986;41.884;23.466;2022-11-13T13:08:12;93127.00;;;23.00
7882;BMP180;3986;41.884;23.466;2022-11-13T13:10:58;93114.00;;;23.90
7882;BMP180;3986;41.884;23.466;2022-11-13T13:13:34;93128.00;;;24.00
7882;BMP180;3986;41.884;23.466;2022-11-13T13:16:04;93107.00;;;23.90
7882;BMP180;3986;41.884;23.466;2022-11-13T13:18:34;93106.00;;;23.90
7882;BMP180;3986;41.884;23.466;2022-11-13T13:21:06;93116.00;;;23.80
7882;BMP180;3986;41.884;23.466;2022-11-13T13:23:35;93127.00;;;24.00
7882;BMP180;3986;41.884;23.466;2022-11-13T13:26:11;93130.00;;;23.70
7882;BMP180;3986;41.884;23.466;2022-11-13T13:28:41;93118.00;;;22.70
7882;BMP180;3986;41.884;23.466;2022-11-13T13:31:19;93106.00;;;22.60
7882;BMP180;3986;41.884;23.466;2022-11-13T13:33:55;93116.00;;;22.50
7882;BMP180;3986;41.884;23.466;2022-11-13T13:36:35;93053.00;;;22.30
7882;BMP180;3986;41.884;23.466;2022-11-13T13:39:12;92982.00;;;23.00
7882;BMP180;3986;41.884;23.466;2022-11-13T13:41:56;93103.00;;;22.90
7882;BMP180;3986;41.884;23.466;2022-11-13T13:44:38;93097.00;;;22.20
7882;BMP180;3986;41.884;23.466;2022-11-13T13:47:10;93102.00;;;20.80
7882;BMP180;3986;41.884;23.466;2022-11-13T13:49:41;93096.00;;;20.50
7882;BMP180;3986;41.884;23.466;2022-11-13T13:52:13;93095.00;;;21.70
7882;BMP180;3986;41.884;23.466;2022-11-13T13:54:41;93096.00;;;22.00
7882;BMP180;3986;41.884;23.466;2022-11-13T13:57:13;93100.00;;;21.80
7882;BMP180;3986;41.884;23.466;2022-11-13T13:59:41;93111.00;;;19.70
7882;BMP180;3986;41.884;23.466;2022-11-13T14:02:14;93096.00;;;19.00
7882;BMP180;3986;41.884;23.466;2022-11-13T14:04:43;93100.00;;;18.80
7882;BMP180;3986;41.884;23.466;2022-11-13T14:07:20;93098.00;;;18.30
7882;BMP180;3986;41.884;23.466;2022-11-13T14:09:48;93101.00;;;18.00
7882;BMP180;3986;41.884;23.466;2022-11-13T14:12:20;93098.00;;;18.30
7882;BMP180;3986;41.884;23.466;2022-11-13T14:14:48;93097.00;;;19.00
7882;BMP180;3986;41.884;23.466;2022-11-13T14:17:21;93101.00;;;18.50
7882;BMP180;3986;41.884;23.466;2022-11-13T14:19:50;93095.00;;;17.60
7882;BMP180;3986;41.884;23.466;2022-11-13T14:22:17;93090.00;;;16.00
7882;BMP180;3986;41.884;23.466;2022-11-13T14:24:47;93085.00;;;15.10
7882;BMP180;3986;41.884;23.466;2022-11-13T14:27:19;93087.00;;;14.80
7882;BMP180;3986;41.884;23.466;2022-11-13T14:29:48;93062.00;;;15.10
7882;BMP180;3986;41.884;23.466;2022-11-13T14:32:20;93083.00;;;14.30
7882;BMP180;3986;41.884;23.466;2022-11-13T14:34:49;93085.00;;;15.30
7882;BMP180;3986;41.884;23.466;2022-11-13T14:37:22;93102.00;;;15.30
7882;BMP180;3986;41.884;23.466;2022-11-13T14:39:51;93071.00;;;14.60
7882;BMP180;3986;41.884;23.466;2022-11-13T14:42:21;93068.00;;;14.90
7882;BMP180;3986;41.884;23.466;2022-11-13T14:44:50;93073.00;;;15.40
7882;BMP180;3986;41.884;23.466;2022-11-13T14:47:23;93070.00;;;15.40
7882;BMP180;3986;41.884;23.466;2022-11-13T14:49:50;93058.00;;;15.50
7882;BMP180;3986;41.884;23.466;2022-11-13T14:52:22;93067.00;;;15.40
7882;BMP180;3986;41.884;23.466;2022-11-13T14:55:00;93063.00;;;15.30